Terminal Aerodrome Forecast
Issued by NWS

Current Version | Previous Version | Graphics & Text | Print | Product List | Glossary On
Versions: 1 2 3 4 5 6 7 8 9 10 11 12 13 14 15 16 17 18 19 20 21 22
000
FTUS41 KILN 271127
TAFLUK
TAF
KLUK 271127Z 2712/2812 19010KT P6SM VCSH SCT050 BKN100
      TEMPO 2712/2714 3SM -SHRA BR SCT025 BKN050
     FM271500 22014G24KT P6SM VCSH OVC035
     FM271700 23014G24KT P6SM BKN035
     FM280000 25008KT P6SM SCT050
     FM280400 21004KT P6SM SCT150
     FM280900 00000KT P6SM SCT150=

USA.gov is the U.S. government's official web portal to all federal, state and local government web resources and services.